createdAt,value
2019-05-15T00:02:41.514Z,7.00
2019-05-15T00:07:42.995Z,6.90
2019-05-15T00:12:44.463Z,6.80
2019-05-15T00:17:48.324Z,6.70
2019-05-15T00:22:50.162Z,6.70
2019-05-15T00:27:52.585Z,6.50
2019-05-15T00:32:54.031Z,6.50
2019-05-15T00:37:55.499Z,6.50
2019-05-15T00:42:57.897Z,6.30
2019-05-15T00:48:00.682Z,6.30
2019-05-15T00:53:02.226Z,6.20
2019-05-15T00:58:03.847Z,6.10
2019-05-15T01:03:05.746Z,6.10
2019-05-15T01:08:08.220Z,6.00
2019-05-15T01:13:09.764Z,6.00
2019-05-15T01:18:11.272Z,5.80
2019-05-15T01:23:12.750Z,5.80
2019-05-15T01:28:14.023Z,5.70
2019-05-15T01:33:15.375Z,5.70
2019-05-15T01:38:18.712Z,5.70
2019-05-15T01:43:20.265Z,5.70
2019-05-15T01:48:21.663Z,5.60
2019-05-15T01:53:23.089Z,5.60
2019-05-15T01:58:24.577Z,5.60
2019-05-15T02:03:29.176Z,5.60
2019-05-15T02:08:30.641Z,5.60
2019-05-15T02:13:32.079Z,5.50
2019-05-15T02:18:33.558Z,5.50
2019-05-15T02:23:35.026Z,5.50
2019-05-15T02:28:38.308Z,5.40
2019-05-15T02:33:40.280Z,5.30
2019-05-15T02:38:41.899Z,5.20
2019-05-15T02:43:43.380Z,5.20
2019-05-15T02:53:50.218Z,5.10
2019-05-15T02:58:51.785Z,5.00
2019-05-15T03:03:53.391Z,5.00
2019-05-15T03:08:54.744Z,4.90
2019-05-15T03:13:59.096Z,4.80
2019-05-15T03:18:59.800Z,4.70
2019-05-15T03:24:01.414Z,4.70
2019-05-15T03:29:02.880Z,4.70
2019-05-15T03:34:04.343Z,4.60
2019-05-15T03:39:05.951Z,4.60
2019-05-15T03:44:09.533Z,4.50
2019-05-15T03:49:10.771Z,4.40
2019-05-15T03:54:12.284Z,4.40
2019-05-15T03:59:13.906Z,4.40
2019-05-15T04:04:15.248Z,4.30
2019-05-15T04:09:18.958Z,4.30
2019-05-15T04:14:20.043Z,4.20
2019-05-15T04:19:21.317Z,4.30
2019-05-15T04:24:25.700Z,4.30
2019-05-15T04:29:28.899Z,4.40
2019-05-15T04:34:30.580Z,4.50
2019-05-15T04:39:32.005Z,4.60
2019-05-15T04:44:33.704Z,4.80
2019-05-15T04:49:34.986Z,4.90
2019-05-15T04:54:39.912Z,5.10
2019-05-15T04:59:39.883Z,5.30
2019-05-15T05:04:41.231Z,5.60
2019-05-15T05:09:42.718Z,5.90
2019-05-15T05:14:48.278Z,6.00
2019-05-15T05:19:51.365Z,6.20
2019-05-15T05:24:52.707Z,6.50
2019-05-15T05:29:54.221Z,6.80
2019-05-15T05:34:58.910Z,7.00
2019-05-15T05:40:00.466Z,7.40
2019-05-15T05:45:02.325Z,7.70
2019-05-15T05:50:07.801Z,8.00
2019-05-15T05:55:10.415Z,8.40
2019-05-15T06:00:18.387Z,9.00
2019-05-15T06:05:20.728Z,9.60
2019-05-15T06:10:22.183Z,10.00
2019-05-15T06:15:23.795Z,10.80
2019-05-15T06:20:25.115Z,11.40
2019-05-15T06:25:30.246Z,11.80
2019-05-15T06:30:31.051Z,12.10
2019-05-15T06:35:32.659Z,12.30
2019-05-15T06:40:34.115Z,12.60
2019-05-15T06:45:38.036Z,12.80
2019-05-15T06:50:40.290Z,12.80
2019-05-15T06:55:41.806Z,13.20
2019-05-15T07:00:48.418Z,13.50
2019-05-15T07:05:50.607Z,13.90
2019-05-15T07:10:52.159Z,14.10
2019-05-15T07:15:53.641Z,14.30
2019-05-15T07:20:54.924Z,14.60
2019-05-15T07:25:58.945Z,14.80
2019-05-15T07:31:03.705Z,14.90
2019-05-15T07:36:08.526Z,15.00
2019-05-15T07:41:10.622Z,15.40
2019-05-15T07:46:14.288Z,15.70
2019-05-15T07:51:17.834Z,16.20
2019-05-15T07:56:18.936Z,16.60
2019-05-15T08:01:22.340Z,17.10
2019-05-15T08:06:24.910Z,17.40
2019-05-15T08:11:28.628Z,17.70
2019-05-15T08:16:33.150Z,17.90
2019-05-15T08:21:34.582Z,18.10
2019-05-15T08:26:37.964Z,18.30
2019-05-15T08:31:48.317Z,18.50
2019-05-15T08:36:53.782Z,18.80
2019-05-15T08:41:58.325Z,19.30
2019-05-15T08:47:02.936Z,19.80
2019-05-15T08:52:10.018Z,20.10
2019-05-15T08:57:29.938Z,20.30
2019-05-15T09:02:31.309Z,20.50
2019-05-15T09:07:34.896Z,20.40
2019-05-15T09:12:38.846Z,20.30
2019-05-15T09:17:40.268Z,20.50
2019-05-15T09:22:41.703Z,20.70
2019-05-15T09:27:48.656Z,20.80
2019-05-15T09:32:49.608Z,21.10
2019-05-15T09:37:52.011Z,21.10
2019-05-15T09:42:57.710Z,21.40
2019-05-15T09:47:59.847Z,21.60
2019-05-15T09:53:01.274Z,21.60
2019-05-15T09:58:02.888Z,21.70
2019-05-15T10:03:04.227Z,21.60
2019-05-15T10:08:08.458Z,21.30
2019-05-15T10:13:09.491Z,21.30
2019-05-15T10:18:13.068Z,21.60
2019-05-15T10:23:14.548Z,21.90
2019-05-15T10:28:19.077Z,21.80
2019-05-15T10:33:21.083Z,22.10
2019-05-15T10:38:22.533Z,22.40
2019-05-15T10:43:24.031Z,22.20
2019-05-15T10:48:28.405Z,22.00
2019-05-15T10:53:30.667Z,22.00
2019-05-15T10:58:32.311Z,21.70
2019-05-15T11:03:35.256Z,21.50
2019-05-15T11:08:40.661Z,21.80
2019-05-15T11:13:42.099Z,22.10
2019-05-15T11:18:48.194Z,22.10
2019-05-15T11:23:51.036Z,22.10
2019-05-15T11:28:53.609Z,22.40
2019-05-15T11:33:58.613Z,22.70
2019-05-15T11:39:05.167Z,22.80
2019-05-15T11:44:06.542Z,22.90
2019-05-15T11:49:13.907Z,22.80
2019-05-15T11:54:18.912Z,22.90
2019-05-15T11:59:20.675Z,23.00
2019-05-15T12:04:29.752Z,23.00
2019-05-15T12:09:30.549Z,22.70
2019-05-15T12:14:31.833Z,22.50
2019-05-15T12:19:35.320Z,22.40
2019-05-15T12:24:40.585Z,22.50
2019-05-15T12:29:41.145Z,22.40
2019-05-15T12:34:51.465Z,22.90
2019-05-15T13:00:12.424Z,24.00
2019-05-15T13:05:14.001Z,23.70
2019-05-15T13:10:18.210Z,23.60
2019-05-15T13:15:19.934Z,23.80
2019-05-15T13:20:21.263Z,24.00
2019-05-15T13:25:28.032Z,23.80
2019-05-15T13:30:30.179Z,23.70
2019-05-15T13:35:38.220Z,24.00
2019-05-15T13:40:42.420Z,24.20
2019-05-15T13:45:42.962Z,24.40
2019-05-15T13:50:48.238Z,24.50
2019-05-15T13:55:49.794Z,23.90
2019-05-15T14:01:03.667Z,24.20
2019-05-15T14:06:09.395Z,24.90
2019-05-15T14:11:12.535Z,24.60
2019-05-15T14:16:15.281Z,24.60
2019-05-15T14:21:24.022Z,25.00
2019-05-15T14:26:28.643Z,24.80
2019-05-15T14:31:37.136Z,24.80
2019-05-15T14:36:48.364Z,25.60
2019-05-15T14:41:51.777Z,25.50
2019-05-15T14:46:54.264Z,25.50
2019-05-15T14:52:07.810Z,26.00
2019-05-15T14:57:10.504Z,26.20
2019-05-15T15:02:15.199Z,26.10
2019-05-15T15:07:22.420Z,26.40
2019-05-15T15:12:39.764Z,26.40
2019-05-15T15:17:49.342Z,26.50
2019-05-15T15:22:50.593Z,26.90
2019-05-15T15:27:58.626Z,26.90
2019-05-15T15:33:01.157Z,26.90
2019-05-15T15:38:02.577Z,27.30
2019-05-15T15:43:08.595Z,27.80
2019-05-15T15:48:11.504Z,27.70
2019-05-15T15:53:19.199Z,27.10
2019-05-15T15:58:20.821Z,26.90
2019-05-15T16:03:44.270Z,26.80
2019-05-15T16:08:55.649Z,26.60
2019-05-15T16:14:00.709Z,24.90
2019-05-15T16:19:05.628Z,23.40
2019-05-15T16:24:17.314Z,22.40
2019-05-15T16:29:19.323Z,21.40
2019-05-15T16:34:23.937Z,20.40
2019-05-15T16:39:32.264Z,20.00
2019-05-15T16:44:41.010Z,19.60
2019-05-15T16:49:49.601Z,19.20
2019-05-15T16:54:51.034Z,18.90
2019-05-15T16:59:55.652Z,18.70
2019-05-15T17:05:04.666Z,18.50
2019-05-15T17:10:23.067Z,18.40
2019-05-15T17:15:28.019Z,18.20
2019-05-15T17:20:43.819Z,18.20
2019-05-15T17:25:45.288Z,18.10
2019-05-15T17:30:59.132Z,18.00
2019-05-15T17:36:13.407Z,17.80
2019-05-15T17:41:21.632Z,17.60
2019-05-15T17:46:23.149Z,17.40
2019-05-15T17:51:27.798Z,17.30
2019-05-15T17:56:31.364Z,17.20
2019-05-15T18:01:38.228Z,17.10
2019-05-15T18:06:48.434Z,16.90
2019-05-15T18:11:50.173Z,16.80
2019-05-15T18:16:51.584Z,16.70
2019-05-15T18:21:54.393Z,16.60
2019-05-15T18:26:55.776Z,16.60
2019-05-15T18:31:59.105Z,16.50
2019-05-15T18:37:00.412Z,16.40
2019-05-15T18:42:04.810Z,16.20
2019-05-15T18:47:08.657Z,16.00
2019-05-15T18:52:10.296Z,15.90
2019-05-15T18:57:23.657Z,15.80
2019-05-15T19:02:28.090Z,15.80
2019-05-15T19:07:29.702Z,15.70
2019-05-15T19:12:31.133Z,15.40
2019-05-15T19:17:33.644Z,15.20
2019-05-15T19:22:35.139Z,14.90
2019-05-15T19:27:39.342Z,14.60
2019-05-15T19:32:41.146Z,14.40
2019-05-15T19:37:42.421Z,14.10
2019-05-15T19:42:45.009Z,13.90
2019-05-15T19:47:49.084Z,13.70
2019-05-15T19:52:53.697Z,13.50
2019-05-15T19:57:58.560Z,13.30
2019-05-15T20:03:45.376Z,13.20
2019-05-15T20:08:49.172Z,13.10
2019-05-15T20:13:58.346Z,12.90
2019-05-15T20:18:59.685Z,12.70
2019-05-15T20:24:13.544Z,12.60
2019-05-15T20:29:14.825Z,12.50
2019-05-15T20:34:28.576Z,12.40
2019-05-15T20:39:30.470Z,12.30
2019-05-15T20:44:40.972Z,12.20
2019-05-15T20:49:42.914Z,12.00
2019-05-15T20:54:48.064Z,11.80
2019-05-15T20:59:49.484Z,11.60
2019-05-15T21:05:09.639Z,11.50
2019-05-15T21:10:29.458Z,11.40
2019-05-15T21:15:36.761Z,11.30
2019-05-15T21:20:41.314Z,11.30
2019-05-15T21:25:48.291Z,11.20
2019-05-15T21:30:52.177Z,11.10
2019-05-15T21:35:53.595Z,11.00
2019-05-15T21:40:55.058Z,10.90
2019-05-15T21:46:15.445Z,10.70
2019-05-15T21:51:18.732Z,10.50
2019-05-15T21:56:28.339Z,10.30
2019-05-15T22:01:33.151Z,10.10
2019-05-15T22:06:49.071Z,10.00
2019-05-15T22:11:51.312Z,9.80
2019-05-15T22:16:58.112Z,9.70
2019-05-15T22:22:11.270Z,9.60
2019-05-15T22:27:22.035Z,9.60
2019-05-15T22:32:35.075Z,9.60
2019-05-15T22:37:48.960Z,9.50
2019-05-15T22:42:51.957Z,9.40
2019-05-15T22:47:59.102Z,9.20
2019-05-15T22:53:04.214Z,9.10
2019-05-15T22:58:08.685Z,8.90
2019-05-15T23:03:31.780Z,8.80
2019-05-15T23:08:38.331Z,8.60
2019-05-15T23:13:42.528Z,8.50
2019-05-15T23:19:19.200Z,8.40
2019-05-15T23:24:22.612Z,8.30
2019-05-15T23:29:35.153Z,8.10
2019-05-15T23:34:42.270Z,8.10
2019-05-15T23:39:43.554Z,8.00
2019-05-15T23:44:50.832Z,7.90
2019-05-15T23:49:52.440Z,7.90
2019-05-15T23:54:53.858Z,7.80
2019-05-15T23:59:58.419Z,7.70
